Schedule Details


Flight Number: CTN381
Departure: Fiumicino (LIRF) at 18:00
Arrival: Kastela (LDSP) at 19:00
Route: OKUNO UL5 VAPUP

Weather Information
LIRF 162250Z 04005KT CAVOK 11/08 Q1017 NOSIG
LDSP 162230Z AUTO 01004KT 340V050 CAVOK 13/05 Q1017
Schedule Frequency

Route Map